createdAt,value
2022-08-27T00:01:13.717Z,1.33
2022-08-27T00:03:40.261Z,1.35
2022-08-27T00:06:06.799Z,1.13
2022-08-27T00:08:33.442Z,1.27
2022-08-27T00:10:59.969Z,1.15
2022-08-27T00:13:26.514Z,1.50
2022-08-27T00:15:53.046Z,1.30
2022-08-27T00:18:22.594Z,1.45
2022-08-27T00:20:49.373Z,1.30
2022-08-27T00:23:15.919Z,1.23
2022-08-27T00:25:42.461Z,1.45
2022-08-27T00:28:09.130Z,1.60
2022-08-27T00:30:35.847Z,1.13
2022-08-27T00:33:02.376Z,1.10
2022-08-27T00:35:28.918Z,1.10
2022-08-27T00:37:55.457Z,1.17
2022-08-27T00:40:22.075Z,1.33
2022-08-27T00:42:48.646Z,1.20
2022-08-27T00:45:15.190Z,1.20
2022-08-27T00:47:41.728Z,1.50
2022-08-27T00:50:08.274Z,1.35
2022-08-27T00:52:34.838Z,1.38
2022-08-27T00:55:01.378Z,1.10
2022-08-27T00:57:27.914Z,1.13
2022-08-27T00:59:54.470Z,1.20
2022-08-27T01:02:21.115Z,1.20
2022-08-27T01:04:47.744Z,1.10
2022-08-27T01:07:14.279Z,1.15
2022-08-27T01:09:40.830Z,1.00
2022-08-27T01:12:07.369Z,1.35
2022-08-27T01:14:33.947Z,1.02
2022-08-27T01:17:00.484Z,1.00
2022-08-27T01:19:27.012Z,0.80
2022-08-27T01:21:53.558Z,1.10
2022-08-27T01:24:20.089Z,0.80
2022-08-27T01:26:46.630Z,0.88
2022-08-27T01:29:13.193Z,0.90
2022-08-27T01:31:39.776Z,1.00
2022-08-27T01:34:06.334Z,0.82
2022-08-27T01:36:32.881Z,1.17
2022-08-27T01:38:59.414Z,1.08
2022-08-27T01:41:27.086Z,1.15
2022-08-27T01:43:53.627Z,1.40
2022-08-27T01:46:20.218Z,1.25
2022-08-27T01:48:46.761Z,1.35
2022-08-27T01:51:13.310Z,1.35
2022-08-27T01:53:39.850Z,1.42
2022-08-27T01:56:06.411Z,1.65
2022-08-27T01:58:32.941Z,1.10
2022-08-27T02:00:59.629Z,1.10
2022-08-27T02:03:26.181Z,0.95
2022-08-27T02:05:52.725Z,1.10
2022-08-27T02:08:19.272Z,0.70
2022-08-27T02:10:45.833Z,1.30
2022-08-27T02:13:12.363Z,1.30
2022-08-27T02:15:38.893Z,1.17
2022-08-27T02:18:05.437Z,1.20
2022-08-27T02:20:31.970Z,1.30
2022-08-27T02:22:58.532Z,1.60
2022-08-27T02:25:25.069Z,1.40
2022-08-27T02:27:51.617Z,1.58
2022-08-27T02:30:18.150Z,1.50
2022-08-27T02:32:44.709Z,1.20
2022-08-27T02:35:11.245Z,1.45
2022-08-27T02:37:37.784Z,1.50
2022-08-27T02:40:04.347Z,1.00
2022-08-27T02:42:30.926Z,0.85
2022-08-27T02:44:57.457Z,0.80
2022-08-27T02:47:24.004Z,0.90
2022-08-27T02:49:50.533Z,1.02
2022-08-27T02:52:17.072Z,1.48
2022-08-27T02:54:51.648Z,1.48
2022-08-27T02:57:18.292Z,1.02
2022-08-27T02:59:44.826Z,1.13
2022-08-27T03:02:11.422Z,1.10
2022-08-27T03:04:38.006Z,1.35
2022-08-27T03:07:04.570Z,1.60
2022-08-27T03:09:31.106Z,1.40
2022-08-27T03:11:57.649Z,1.40
2022-08-27T03:14:24.177Z,1.10
2022-08-27T03:16:50.741Z,0.98
2022-08-27T03:19:23.841Z,1.08
2022-08-27T03:21:54.685Z,1.00
2022-08-27T03:24:21.551Z,1.50
2022-08-27T03:26:52.888Z,1.40
2022-08-27T03:31:47.293Z,1.27
2022-08-27T03:34:13.870Z,1.20
2022-08-27T03:36:46.866Z,1.13
2022-08-27T03:39:13.716Z,1.10
2022-08-27T03:41:54.284Z,1.33
2022-08-27T03:44:22.170Z,1.10
2022-08-27T03:46:48.822Z,1.05
2022-08-27T03:49:15.394Z,0.90
2022-08-27T03:51:47.035Z,1.05
2022-08-27T03:54:13.586Z,1.48
2022-08-27T03:56:40.121Z,1.13
2022-08-27T03:59:06.662Z,0.98
2022-08-27T04:01:33.244Z,1.13
2022-08-27T04:03:59.825Z,1.23
2022-08-27T04:06:26.349Z,1.00
2022-08-27T04:08:52.893Z,0.90
2022-08-27T04:11:19.426Z,0.80
2022-08-27T04:13:45.973Z,0.98
2022-08-27T04:16:12.543Z,0.73
2022-08-27T04:18:39.154Z,0.70
2022-08-27T04:21:05.694Z,0.82
2022-08-27T04:23:32.243Z,0.75
2022-08-27T04:25:58.786Z,1.00
2022-08-27T04:28:25.337Z,1.10
2022-08-27T04:30:51.890Z,0.98
2022-08-27T04:33:18.445Z,0.93
2022-08-27T04:35:44.997Z,1.10
2022-08-27T04:38:11.696Z,1.25
2022-08-27T04:40:38.392Z,1.08
2022-08-27T04:43:04.940Z,1.00
2022-08-27T04:45:31.478Z,0.95
2022-08-27T04:47:58.028Z,0.90
2022-08-27T04:50:25.687Z,0.82
2022-08-27T04:52:52.444Z,1.10
2022-08-27T04:55:18.973Z,1.45
2022-08-27T04:57:45.513Z,1.08
2022-08-27T05:00:12.043Z,1.58
2022-08-27T05:02:38.581Z,1.20
2022-08-27T05:05:05.198Z,1.65
2022-08-27T05:07:31.795Z,1.40
2022-08-27T05:09:58.328Z,1.80
2022-08-27T05:12:24.856Z,1.50
2022-08-27T05:14:51.402Z,1.40
2022-08-27T05:17:17.938Z,1.65
2022-08-27T05:19:44.482Z,1.90
2022-08-27T05:22:11.015Z,1.85
2022-08-27T05:24:37.559Z,1.92
2022-08-27T05:27:04.091Z,1.45
2022-08-27T05:29:30.642Z,1.40
2022-08-27T05:31:57.181Z,1.27
2022-08-27T05:34:26.338Z,1.23
2022-08-27T05:36:53.801Z,1.20
2022-08-27T05:39:20.350Z,1.33
2022-08-27T05:41:46.877Z,1.25
2022-08-27T05:44:39.585Z,1.67
2022-08-27T05:46:59.940Z,2.03
2022-08-27T05:49:26.488Z,1.80
2022-08-27T05:51:53.042Z,1.77
2022-08-27T05:54:19.992Z,1.67
2022-08-27T05:56:46.647Z,1.73
2022-08-27T05:59:13.194Z,1.40
2022-08-27T06:01:39.725Z,1.90
2022-08-27T06:04:06.317Z,1.40
2022-08-27T06:06:32.902Z,1.42
2022-08-27T06:08:59.448Z,2.15
2022-08-27T06:11:25.984Z,1.60
2022-08-27T06:13:52.534Z,2.47
2022-08-27T06:16:19.147Z,2.40
2022-08-27T06:18:45.731Z,1.83
2022-08-27T06:21:12.261Z,1.50
2022-08-27T06:23:38.804Z,1.40
2022-08-27T06:26:05.337Z,1.27
2022-08-27T06:28:31.947Z,1.40
2022-08-27T06:30:58.518Z,1.60
2022-08-27T06:33:25.129Z,1.95
2022-08-27T06:35:51.655Z,2.00
2022-08-27T06:38:18.197Z,2.13
2022-08-27T06:40:44.730Z,2.03
2022-08-27T06:43:11.264Z,1.95
2022-08-27T06:45:37.809Z,1.88
2022-08-27T06:48:04.343Z,1.85
2022-08-27T06:50:30.878Z,1.73
2022-08-27T06:52:57.406Z,1.63
2022-08-27T06:55:23.950Z,1.60
2022-08-27T06:57:50.481Z,1.98
2022-08-27T07:00:17.028Z,1.50
2022-08-27T07:02:43.605Z,1.40
2022-08-27T07:05:10.173Z,2.38
2022-08-27T07:07:43.244Z,1.30
2022-08-27T07:10:12.022Z,1.95
2022-08-27T07:12:38.554Z,1.27
2022-08-27T07:15:05.097Z,1.60
2022-08-27T07:17:31.629Z,1.20
2022-08-27T07:19:58.177Z,1.45
2022-08-27T07:22:24.714Z,0.90
2022-08-27T07:24:51.265Z,0.80
2022-08-27T07:27:17.797Z,1.10
2022-08-27T07:29:44.341Z,1.10
2022-08-27T07:32:10.877Z,0.85
2022-08-27T07:34:37.421Z,0.68
2022-08-27T07:37:03.962Z,0.73
2022-08-27T07:39:30.512Z,0.90
2022-08-27T07:41:57.040Z,0.75
2022-08-27T07:44:25.858Z,0.60
2022-08-27T07:46:52.473Z,0.63
2022-08-27T07:49:19.006Z,0.80
2022-08-27T07:51:45.548Z,0.60
2022-08-27T07:54:12.080Z,0.80
2022-08-27T07:56:38.635Z,0.60
2022-08-27T07:59:05.165Z,0.60
2022-08-27T08:01:31.794Z,0.50
2022-08-27T08:03:58.391Z,0.55
2022-08-27T08:06:24.934Z,0.50
2022-08-27T08:08:51.473Z,0.70
2022-08-27T08:11:18.019Z,0.40
2022-08-27T08:13:44.549Z,0.50
2022-08-27T08:16:11.093Z,0.40
2022-08-27T08:18:37.641Z,0.80
2022-08-27T08:21:04.182Z,0.70
2022-08-27T08:23:30.718Z,0.70
2022-08-27T08:25:57.260Z,0.70
2022-08-27T08:28:23.793Z,0.70
2022-08-27T08:30:50.381Z,0.73
2022-08-27T08:33:16.958Z,0.70
2022-08-27T08:35:43.536Z,1.10
2022-08-27T08:38:10.197Z,0.80
2022-08-27T08:40:36.889Z,0.73
2022-08-27T08:43:03.482Z,0.82
2022-08-27T08:45:30.022Z,0.80
2022-08-27T08:47:56.560Z,0.77
2022-08-27T08:50:23.088Z,0.70
2022-08-27T08:52:49.632Z,0.60
2022-08-27T08:55:16.168Z,0.47
2022-08-27T08:57:42.713Z,0.73
2022-08-27T09:00:09.246Z,0.88
2022-08-27T09:02:35.789Z,0.70
2022-08-27T09:05:02.325Z,0.73
2022-08-27T09:07:28.875Z,0.60
2022-08-27T09:09:55.413Z,0.82
2022-08-27T09:12:21.945Z,0.77
2022-08-27T09:14:51.213Z,0.40
2022-08-27T09:17:17.750Z,0.65
2022-08-27T09:19:45.154Z,0.60
2022-08-27T09:22:12.170Z,0.80
2022-08-27T09:24:38.726Z,0.75
2022-08-27T09:27:05.266Z,0.80
2022-08-27T09:29:31.825Z,1.27
2022-08-27T09:31:58.358Z,0.77
2022-08-27T09:34:24.905Z,0.95
2022-08-27T09:36:51.438Z,0.80
2022-08-27T09:39:17.985Z,0.60
2022-08-27T09:41:44.515Z,0.60
2022-08-27T09:44:11.086Z,0.70
2022-08-27T09:46:37.613Z,2.47
2022-08-27T09:49:04.150Z,1.30
2022-08-27T09:51:30.685Z,1.80
2022-08-27T09:53:57.222Z,1.75
2022-08-27T09:56:23.769Z,1.15
2022-08-27T09:58:50.297Z,0.70
2022-08-27T10:01:16.911Z,0.70
2022-08-27T10:03:43.529Z,0.68
2022-08-27T10:06:10.125Z,0.80
2022-08-27T10:08:36.654Z,0.77
2022-08-27T10:11:03.193Z,0.80
2022-08-27T10:13:29.725Z,0.80
2022-08-27T10:15:56.273Z,0.77
2022-08-27T10:18:22.802Z,0.80
2022-08-27T10:20:49.333Z,0.63
2022-08-27T10:23:18.005Z,0.68
2022-08-27T10:25:44.538Z,0.60
2022-08-27T10:28:11.212Z,0.60
2022-08-27T10:30:37.865Z,0.80
2022-08-27T10:33:04.431Z,0.73
2022-08-27T10:35:30.973Z,0.82
2022-08-27T10:37:57.521Z,0.70
2022-08-27T10:40:24.103Z,0.40
2022-08-27T10:42:52.089Z,0.80
2022-08-27T10:45:30.488Z,0.82
2022-08-27T10:47:58.029Z,0.60
2022-08-27T10:50:27.619Z,0.80
2022-08-27T10:52:54.161Z,0.80
2022-08-27T10:55:20.728Z,0.60
2022-08-27T10:57:57.664Z,0.50
2022-08-27T11:00:25.412Z,0.57
2022-08-27T11:02:51.950Z,0.70
2022-08-27T11:05:18.490Z,0.70
2022-08-27T11:07:45.035Z,0.60
2022-08-27T11:10:11.624Z,0.60
2022-08-27T11:12:38.166Z,0.98
2022-08-27T11:15:04.704Z,1.10
2022-08-27T11:17:32.303Z,1.25
2022-08-27T11:19:59.130Z,0.47
2022-08-27T11:22:26.484Z,0.57
2022-08-27T11:24:53.361Z,0.60
2022-08-27T11:27:19.889Z,0.50
2022-08-27T11:29:46.440Z,0.75
2022-08-27T11:32:12.969Z,0.43
2022-08-27T11:34:39.525Z,0.80
2022-08-27T11:37:06.055Z,0.35
2022-08-27T11:39:32.603Z,0.63
2022-08-27T11:41:59.137Z,0.55
2022-08-27T11:44:25.665Z,0.77
2022-08-27T11:46:52.265Z,0.60
2022-08-27T11:49:18.818Z,0.50
2022-08-27T11:51:45.362Z,0.63
2022-08-27T11:54:11.897Z,0.73
2022-08-27T11:56:38.438Z,0.65
2022-08-27T11:59:04.965Z,0.80
2022-08-27T12:01:31.498Z,0.80
2022-08-27T12:03:58.062Z,0.60
2022-08-27T12:06:24.622Z,0.22
2022-08-27T12:08:51.166Z,0.50
2022-08-27T12:11:17.698Z,0.60
2022-08-27T12:13:44.243Z,0.60
2022-08-27T12:16:10.822Z,0.90
2022-08-27T12:18:37.382Z,0.90
2022-08-27T12:21:03.929Z,1.48
2022-08-27T12:23:30.490Z,1.10
2022-08-27T12:25:57.020Z,1.02
2022-08-27T12:28:26.581Z,0.80
2022-08-27T12:30:53.454Z,1.00
2022-08-27T12:33:19.987Z,0.80
2022-08-27T12:35:46.535Z,0.68
2022-08-27T12:38:13.246Z,0.50
2022-08-27T12:40:42.586Z,0.50
2022-08-27T12:43:09.183Z,0.43
2022-08-27T12:45:35.725Z,0.35
2022-08-27T12:48:02.258Z,0.80
2022-08-27T12:50:28.813Z,0.60
2022-08-27T12:52:55.345Z,0.40
2022-08-27T12:55:21.923Z,0.40
2022-08-27T12:57:48.462Z,0.80
2022-08-27T13:00:15.011Z,0.70
2022-08-27T13:02:41.541Z,0.30
2022-08-27T13:05:10.311Z,0.60
2022-08-27T13:07:37.874Z,0.60
2022-08-27T13:10:04.829Z,0.70
2022-08-27T13:12:31.373Z,0.55
2022-08-27T13:14:57.901Z,0.40
2022-08-27T13:17:24.446Z,0.77
2022-08-27T13:19:50.991Z,0.70
2022-08-27T13:22:17.537Z,0.60
2022-08-27T13:24:44.067Z,0.50
2022-08-27T13:27:10.609Z,0.90
2022-08-27T13:29:37.156Z,0.70
2022-08-27T13:32:03.704Z,0.50
2022-08-27T13:34:30.239Z,0.47
2022-08-27T13:36:56.785Z,0.40
2022-08-27T13:39:23.330Z,0.50
2022-08-27T13:41:49.874Z,0.40
2022-08-27T13:44:16.405Z,0.32
2022-08-27T13:46:42.989Z,0.32
2022-08-27T13:49:09.555Z,0.28
2022-08-27T13:51:36.092Z,0.63
2022-08-27T13:54:02.621Z,0.43
2022-08-27T13:56:29.221Z,0.50
2022-08-27T13:58:55.760Z,0.60
2022-08-27T14:01:22.309Z,0.47
2022-08-27T14:03:48.889Z,0.60
2022-08-27T14:06:15.422Z,0.70
2022-08-27T14:08:41.961Z,0.70
2022-08-27T14:11:08.490Z,0.57
2022-08-27T14:13:35.042Z,0.80
2022-08-27T14:16:01.602Z,1.05
2022-08-27T14:18:42.562Z,0.95
2022-08-27T14:21:14.742Z,0.90
2022-08-27T14:23:41.281Z,0.70
2022-08-27T14:26:07.810Z,0.65
2022-08-27T14:28:34.366Z,0.70
2022-08-27T14:31:00.963Z,0.95
2022-08-27T14:33:27.538Z,1.00
2022-08-27T14:35:54.069Z,0.98
2022-08-27T14:38:20.610Z,0.63
2022-08-27T14:40:47.146Z,0.70
2022-08-27T14:43:13.672Z,0.60
2022-08-27T14:45:41.254Z,0.70
2022-08-27T14:48:07.794Z,0.80
2022-08-27T14:50:44.857Z,0.73
2022-08-27T14:53:11.385Z,0.70
2022-08-27T14:55:37.931Z,0.30
2022-08-27T14:58:04.529Z,0.68
2022-08-27T15:00:31.141Z,0.63
2022-08-27T15:02:57.669Z,0.77
2022-08-27T15:05:25.012Z,0.70
2022-08-27T15:07:51.655Z,0.55
2022-08-27T15:10:18.206Z,0.70
2022-08-27T15:12:44.737Z,0.70
2022-08-27T15:15:11.277Z,1.02
2022-08-27T15:17:37.810Z,0.73
2022-08-27T15:20:04.358Z,0.68
2022-08-27T15:22:30.907Z,0.32
2022-08-27T15:24:57.454Z,0.77
2022-08-27T15:27:23.987Z,0.45
2022-08-27T15:29:58.797Z,0.63
2022-08-27T15:32:25.410Z,0.60
2022-08-27T15:34:55.471Z,0.60
2022-08-27T15:37:22.193Z,0.70
2022-08-27T15:39:48.741Z,0.60
2022-08-27T15:42:15.268Z,0.82
2022-08-27T15:44:41.819Z,0.45
2022-08-27T15:47:08.357Z,0.50
2022-08-27T15:49:34.901Z,0.40
2022-08-27T15:52:01.432Z,0.50
2022-08-27T15:54:27.913Z,0.80
2022-08-27T15:56:54.374Z,0.60
2022-08-27T15:59:20.855Z,0.70
2022-08-27T16:01:47.378Z,0.63
2022-08-27T16:04:13.872Z,0.63
2022-08-27T16:06:40.357Z,0.52
2022-08-27T16:09:06.815Z,0.35
2022-08-27T16:11:33.289Z,0.30
2022-08-27T16:13:59.753Z,0.70
2022-08-27T16:16:26.318Z,0.30
2022-08-27T16:18:52.864Z,0.50
2022-08-27T16:21:19.340Z,0.50
2022-08-27T16:23:45.798Z,0.60
2022-08-27T16:26:12.281Z,0.52
2022-08-27T16:28:38.744Z,0.80
2022-08-27T16:31:05.267Z,0.63
2022-08-27T16:33:39.497Z,0.63
2022-08-27T16:36:06.111Z,0.43
2022-08-27T16:38:32.565Z,0.50
2022-08-27T16:40:59.052Z,0.75
2022-08-27T16:43:25.513Z,0.50
2022-08-27T16:45:52.039Z,0.57
2022-08-27T16:48:18.568Z,0.50
2022-08-27T16:50:45.046Z,1.02
2022-08-27T16:53:11.510Z,0.88
2022-08-27T16:55:37.980Z,0.80
2022-08-27T16:58:04.460Z,0.95
2022-08-27T17:00:30.955Z,0.68
2022-08-27T17:02:57.458Z,0.50
2022-08-27T17:05:33.973Z,0.45
2022-08-27T17:08:01.271Z,0.70
2022-08-27T17:10:29.091Z,0.73
2022-08-27T17:12:55.560Z,0.50
2022-08-27T17:15:22.041Z,0.30
2022-08-27T17:17:48.504Z,0.70
2022-08-27T17:20:15.983Z,0.40
2022-08-27T17:22:42.461Z,0.60
2022-08-27T17:25:08.917Z,0.60
2022-08-27T17:27:35.384Z,0.85
2022-08-27T17:30:01.846Z,0.40
2022-08-27T17:32:28.323Z,0.60
2022-08-27T17:34:54.792Z,0.50
2022-08-27T17:37:21.267Z,0.57
2022-08-27T17:39:47.733Z,0.70
2022-08-27T17:42:14.202Z,0.43
2022-08-27T17:44:40.665Z,0.73
2022-08-27T17:47:07.152Z,0.60
2022-08-27T17:49:33.624Z,0.40
2022-08-27T17:52:00.165Z,0.43
2022-08-27T17:54:26.666Z,0.60
2022-08-27T17:56:53.137Z,0.45
2022-08-27T17:59:19.599Z,0.50
2022-08-27T18:01:46.142Z,0.50
2022-08-27T18:04:12.652Z,0.73
2022-08-27T18:06:39.125Z,0.60
2022-08-27T18:09:05.642Z,0.50
2022-08-27T18:11:32.111Z,0.70
2022-08-27T18:14:01.597Z,0.60
2022-08-27T18:16:31.160Z,0.75
2022-08-27T18:18:57.656Z,0.50
2022-08-27T18:21:25.601Z,0.75
2022-08-27T18:23:52.755Z,0.85
2022-08-27T18:26:19.233Z,0.70
2022-08-27T18:28:45.690Z,0.50
2022-08-27T18:31:12.196Z,0.93
2022-08-27T18:33:38.737Z,0.60
2022-08-27T18:36:05.665Z,1.17
2022-08-27T18:38:32.140Z,0.60
2022-08-27T18:40:58.600Z,0.75
2022-08-27T18:43:25.086Z,0.60
2022-08-27T18:45:51.579Z,0.60
2022-08-27T18:48:18.083Z,0.52
2022-08-27T18:50:44.546Z,0.55
2022-08-27T18:53:11.020Z,1.20
2022-08-27T18:55:37.480Z,0.60
2022-08-27T18:58:03.953Z,0.50
2022-08-27T19:00:30.414Z,0.70
2022-08-27T19:02:56.889Z,0.65
2022-08-27T19:05:23.350Z,0.63
2022-08-27T19:07:49.827Z,0.70
2022-08-27T19:10:16.811Z,0.77
2022-08-27T19:12:43.277Z,0.60
2022-08-27T19:15:09.748Z,0.52
2022-08-27T19:17:36.227Z,0.82
2022-08-27T19:20:02.696Z,0.75
2022-08-27T19:22:29.169Z,0.80
2022-08-27T19:24:55.636Z,0.80
2022-08-27T19:27:24.945Z,0.70
2022-08-27T19:29:51.657Z,1.15
2022-08-27T19:32:18.116Z,0.80
2022-08-27T19:34:44.590Z,0.63
2022-08-27T19:37:11.049Z,0.63
2022-08-27T19:39:37.522Z,1.05
2022-08-27T19:42:03.999Z,0.70
2022-08-27T19:44:30.477Z,0.70
2022-08-27T19:46:56.939Z,1.08
2022-08-27T19:49:23.434Z,0.60
2022-08-27T19:51:49.900Z,0.60
2022-08-27T19:54:16.376Z,0.70
2022-08-27T19:56:42.829Z,0.90
2022-08-27T19:59:20.481Z,1.00
2022-08-27T20:01:47.972Z,1.15
2022-08-27T20:04:14.529Z,0.80
2022-08-27T20:06:41.063Z,1.00
2022-08-27T20:09:07.536Z,0.70
2022-08-27T20:11:34.002Z,0.90
2022-08-27T20:14:00.511Z,1.30
2022-08-27T20:16:27.420Z,1.20
2022-08-27T20:18:55.585Z,0.90
2022-08-27T20:21:24.840Z,0.90
2022-08-27T20:23:51.306Z,1.40
2022-08-27T20:26:17.769Z,1.42
2022-08-27T20:28:44.381Z,1.30
2022-08-27T20:31:11.094Z,1.00
2022-08-27T20:33:37.638Z,1.35
2022-08-27T20:36:04.113Z,1.23
2022-08-27T20:38:30.617Z,1.05
2022-08-27T20:40:57.090Z,1.25
2022-08-27T20:43:23.561Z,1.50
2022-08-27T20:45:50.091Z,1.55
2022-08-27T20:48:16.704Z,1.33
2022-08-27T20:50:43.174Z,1.60
2022-08-27T20:53:09.637Z,1.13
2022-08-27T20:55:36.101Z,1.38
2022-08-27T20:58:11.772Z,1.50
2022-08-27T21:00:38.460Z,1.55
2022-08-27T21:03:04.939Z,1.52
2022-08-27T21:05:31.412Z,1.45
2022-08-27T21:07:57.889Z,1.80
2022-08-27T21:10:24.380Z,1.73
2022-08-27T21:12:50.843Z,1.83
2022-08-27T21:15:17.344Z,1.50
2022-08-27T21:17:43.925Z,1.50
2022-08-27T21:20:10.397Z,1.88
2022-08-27T21:22:36.847Z,1.30
2022-08-27T21:25:03.315Z,1.50
2022-08-27T21:27:29.773Z,1.60
2022-08-27T21:29:56.256Z,1.65
2022-08-27T21:32:22.724Z,1.45
2022-08-27T21:34:49.336Z,1.50
2022-08-27T21:37:15.874Z,1.70
2022-08-27T21:39:42.360Z,1.60
2022-08-27T21:42:08.817Z,1.73
2022-08-27T21:44:35.297Z,1.40
2022-08-27T21:47:01.862Z,1.73
2022-08-27T21:49:28.394Z,1.48
2022-08-27T21:51:54.854Z,1.75
2022-08-27T21:54:21.323Z,1.70
2022-08-27T21:56:49.969Z,2.03
2022-08-27T21:59:16.436Z,1.65
2022-08-27T22:01:42.957Z,1.80
2022-08-27T22:04:09.434Z,1.90
2022-08-27T22:06:35.917Z,1.83
2022-08-27T22:09:02.379Z,2.30
2022-08-27T22:11:30.542Z,1.80
2022-08-27T22:13:57.206Z,1.60
2022-08-27T22:16:23.774Z,2.15
2022-08-27T22:18:54.519Z,1.70
2022-08-27T22:21:21.632Z,1.70
2022-08-27T22:23:48.101Z,1.80
2022-08-27T22:26:14.573Z,1.70
2022-08-27T22:28:41.032Z,2.08
2022-08-27T22:31:07.559Z,1.85
2022-08-27T22:33:34.045Z,1.38
2022-08-27T22:36:00.521Z,1.48
2022-08-27T22:38:26.983Z,1.10
2022-08-27T22:40:53.459Z,1.52
2022-08-27T22:43:19.921Z,1.48
2022-08-27T22:45:46.397Z,1.70
2022-08-27T22:48:12.971Z,1.63
2022-08-27T22:50:39.573Z,2.10
2022-08-27T22:53:06.033Z,1.80
2022-08-27T22:55:32.507Z,1.88
2022-08-27T22:57:58.972Z,1.77
2022-08-27T23:00:25.443Z,1.70
2022-08-27T23:02:51.900Z,2.13
2022-08-27T23:05:18.436Z,1.90
2022-08-27T23:07:44.983Z,1.77
2022-08-27T23:10:11.491Z,2.30
2022-08-27T23:12:39.009Z,2.85
2022-08-27T23:15:05.666Z,2.75
2022-08-27T23:17:32.139Z,2.78
2022-08-27T23:19:58.597Z,2.97
2022-08-27T23:22:25.072Z,2.60
2022-08-27T23:24:51.529Z,3.00
2022-08-27T23:27:18.005Z,3.20
2022-08-27T23:29:44.468Z,2.58
2022-08-27T23:32:10.939Z,2.10
2022-08-27T23:34:37.405Z,2.25
2022-08-27T23:37:03.869Z,2.15
2022-08-27T23:39:30.408Z,2.05
2022-08-27T23:41:56.886Z,2.20
2022-08-27T23:44:23.358Z,1.90
2022-08-27T23:46:50.618Z,2.20
2022-08-27T23:49:17.220Z,2.53
2022-08-27T23:51:43.720Z,2.65
2022-08-27T23:54:10.206Z,2.63
2022-08-27T23:56:36.668Z,2.33
2022-08-27T23:59:03.120Z,2.50
